Aeroporto :
LOGIN :

Iscrizione | Disclaimer

   EN    FR    IT 

 










Sommario :    VFR   VFR Marginale   IFR   IFR Intensivo   IFR Molto Intensivo
Visibilità : 
Base nubi : 
>= 8 km
>= 3000ft
5 / 8 km
1000 / 3000 ft
1500m / 5 km
500 / 1000 ft
800 / 1500m
200 / 500 ft
< 800m
< 200 ft
Simboli :   Temporali  Nebbia  Neve Forte  Precipitazioni Forti  Vento > 20 kt
SIGMETs :   Varie  Temporali  Ghiacco  Turbolenza  Onda orograficha  Ceneri Vulcaniche






- Altitudine del aeroporto : 13 ft
- Codice IATA : LYX


EGMD - Lydd

ULTIMO METAR :
  • 241350Z 23029KT 2500 -RA BR OVC004 10/10 Q1008

METARs OBSOLETI :
  • 241320Z 23032KT 2500 -RA BR OVC004 10/10 Q1009
  • 241250Z 23030KT 2800 -RA BR BKN005 OVC009 10/10 Q1010 RERA
  • 241150Z 23029KT 9000 -DZ SCT004 BKN007 OVC011 10/10 Q1010
  • 241120Z 23030KT 8000 BKN008 OVC017 11/10 Q1011

TAF AMD TAF EGMD
Valido dal 24 a 13 ore il 24 a 21 ore UTC


241332Z 2413/2421 23025G35KT 9999 BKN010
TEMPO 2413/2418 3000 RADZ BKN004
PROB30
TEMPO 2413/2418 23032G45KT
BECMG 2418/2421 27016KT SCT025
ATIS : +44 1797 322 422



MetMap, La meteo Aeronautica in un colpo d'occhio ! - Copyright ORBIFLY Dicembre 2007 - Disclaimer

ORBIFLY MET'MAP TEAM :

Programmazione e sviluppo : Alexandra Zaïnal
Concezione : Baudouin d'Aumeries
Aiuto per la programmazione : Marc-Olivier Méhu
Supporto tecnico e logistico : Manuel Goepfert
Aiuto per la traduzione : Arnaldo La Scala

Contatto : metmap@orbifly.com




FONTI E CREDITI :

   NOAA